Wednesday, June 20, 2018, 5:14 PM EDT
Back to Local

KOWD, Norwood Memorial Airport

Location: Norwood, MA, United States Lat: 42.183
Local Time: 5:14 PM EDT (21:14 GMT) Lon: -71.167
Time Zone: US/Eastern Elev: 49 ft

Show me the last for .
Show Decoded

2018-06-20 16:53 METAR KOWD 202053Z 27008KT 10SM CLR 27/12 A2978 RMK AO2 SLP083 T02670122 58009 =
2018-06-20 15:53 METAR KOWD 201953Z 29010KT 10SM CLR 27/12 A2979 RMK AO2 SLP089 T02720117 =
2018-06-20 14:53 METAR KOWD 201853Z 26010KT 10SM CLR 27/11 A2980 RMK AO2 SLP090 T02670106 =
2018-06-20 13:53 METAR KOWD 201753Z 24009KT 10SM CLR 28/12 A2981 RMK AO2 SLP093 T02830117 10289
                 20206 56021 =
2018-06-20 12:53 METAR KOWD 201653Z 22010G16KT 10SM CLR 28/11 A2983 RMK AO2 SLP099 T02830111 =
2018-06-20 11:53 METAR KOWD 201553Z VRB06KT 10SM CLR 27/12 A2985 RMK AO2 SLP106 T02720122 =
2018-06-20 10:53 METAR KOWD 201453Z 22005KT 10SM CLR 26/11 A2987 RMK AO2 SLP114 T02560111 57018 =
2018-06-20 09:53 METAR KOWD 201353Z 16008KT 10SM CLR 25/10 A2989 RMK AO2 SLP119 T02500100 =
2018-06-20 08:53 METAR KOWD 201253Z 16005KT 10SM CLR 23/11 A2991 RMK AO2 SLP126 T02280111 =
2018-06-20 07:53 METAR KOWD 201153Z 00000KT 10SM CLR 21/13 A2992 RMK AO2 SLP132 T02060133 10206
                 20089 53009 =
2018-06-20 06:53 METAR KOWD 201053Z 00000KT 10SM CLR 16/13 A2991 RMK AO2 SLP126 T01610128 $ =
2018-06-20 05:53 METAR KOWD 200953Z AUTO 00000KT 10SM CLR 10/09 A2990 RMK AO2 SLP123 T01000089 $
                 =
2018-06-20 05:49 METAR KOWD 200949Z AUTO 00000KT 10SM CLR 09/08 A2990 RMK AO2 $ =
2018-06-20 05:42 METAR KOWD 200942Z AUTO 00000KT 2 1/2SM BR CLR 09/09 A2990 RMK AO2 T00940089 $ =
2018-06-20 05:31 METAR KOWD 200931Z AUTO 00000KT 1/4SM FG CLR 09/08 A2990 RMK AO2 T00890078 $ =
2018-06-20 05:24 METAR KOWD 200924Z AUTO 00000KT 1SM BR CLR 09/08 A2990 RMK AO2 VIS 1/4V5
                 T00940078 $ =
2018-06-20 04:53 METAR KOWD 200853Z AUTO 00000KT 6SM BR CLR 11/09 A2988 RMK AO2 SLP118 T01060089
                 51004 $ =
2018-06-20 04:41 METAR KOWD 200841Z AUTO 00000KT 1 1/2SM BR CLR 10/08 A2988 RMK AO2 VIS 1/2V5
                 T01000083 $ =
2018-06-20 04:02 METAR KOWD 200802Z AUTO 00000KT 3SM BR CLR 11/09 A2987 RMK AO2 T01110094 $ =
2018-06-20 03:53 METAR KOWD 200753Z AUTO 00000KT 1 3/4SM BR CLR 11/09 A2988 RMK AO2 VIS 3/4V5
                 SLP116 T01060089 $ =
2018-06-20 02:53 METAR KOWD 200653Z AUTO 00000KT 10SM CLR 12/10 A2988 RMK AO2 SLP117 T01170100 $
                 =
2018-06-20 01:53 METAR KOWD 200553Z AUTO 17004KT 10SM CLR 12/10 A2987 RMK AO2 SLP114 T01220100
                 10256 20122 50000 $ =
2018-06-20 00:53 METAR KOWD 200453Z AUTO 00000KT 10SM CLR 14/10 A2988 RMK AO2 SLP117 T01390100
                 402940128 $ =
2018-06-19 23:53 METAR KOWD 200353Z AUTO 34004KT 10SM CLR 18/10 A2988 RMK AO2 SLP116 T01830100 =
2018-06-19 22:53 METAR KOWD 200253Z AUTO 33003KT 10SM CLR 17/10 A2987 RMK AO2 SLP113 T01670100
                 53021 =
2018-06-19 21:53 METAR KOWD 200153Z 00000KT 10SM CLR 17/11 A2985 RMK AO2 SLP107 T01670111 =
2018-06-19 20:53 METAR KOWD 200053Z 32004KT 10SM CLR 22/09 A2982 RMK AO2 SLP097 T02220094 =
2018-06-19 19:53 METAR KOWD 192353Z 33003KT 10SM CLR 25/09 A2981 RMK AO2 SLP092 T02500094 10294
                 20250 53016 =
2018-06-19 18:53 METAR KOWD 192253Z 31011G16KT 10SM CLR 27/09 A2979 RMK AO2 SLP087 T02720094 =
2018-06-19 17:53 METAR KOWD 192153Z 29013G16KT 10SM CLR 28/09 A2977 RMK AO2 SLP080 T02830094 =

Support USWX by starting your Amazon purchase here.